Airport View

Enter AWOS ICAO identifier for current METAR.

ex. KFNL

KCLI 041433Z AUTO 00000KT 10SM CLR 27/20 A3008 RMK AO2 T02700199

4 Jul 2020 14:33

Frequency: 120.675

Phone: 715-823-7691

Other Area AWOS: KEZS - KPCZ - KATW - KGRB

TAF KATW 041120Z 0412/0512 35003KT 6SM BR SKC FM041300 04003KT P6SM SCT250 FM041600 11004KT P6SM SCT040 SCT250 FM050000 16004KT P6SM SKC FM050800 VRB03KT 6SM BR SCT150